Time;durP1;ratioP1;P1;durP2;ratioP2;P2;SDS_P1;SDS_P2;PMS_P1;PMS_P2;Temp;Humidity;BMP_temperature;BMP_pressure;BME280_temperature;BME280_humidity;BME280_pressure;Samples;Min_cycle;Max_cycle;Signal;HPM_P1;HPM_P2
2021/06/08 00:01:05;;;;;;;8.93;4.30;;;;;;;15.64;61.16;102337.09;5051762;28;20132;-55
2021/06/08 00:03:32;;;;;;;5.70;2.72;;;;;;;15.57;61.32;102349.03;5051834;28;20080;-59
2021/06/08 00:05:59;;;;;;;7.05;3.60;;;;;;;15.52;61.96;102344.00;5050761;28;20053;-56
2021/06/08 00:08:26;;;;;;;6.43;3.15;;;;;;;15.52;61.78;102343.16;5052000;28;20045;-56
2021/06/08 00:10:52;;;;;;;5.85;3.22;;;;;;;15.48;62.14;102346.97;5050224;28;20060;-57
2021/06/08 00:13:19;;;;;;;8.38;3.40;;;;;;;15.42;62.35;102347.31;5050459;28;20045;-55
2021/06/08 00:15:46;;;;;;;8.02;3.22;;;;;;;15.44;62.53;102342.78;5051337;28;20064;-58
2021/06/08 00:18:13;;;;;;;7.70;3.55;;;;;;;15.46;62.62;102340.88;5050922;28;20065;-59
2021/06/08 00:20:40;;;;;;;6.20;3.60;;;;;;;15.44;63.03;102348.94;5051692;28;20041;-53
2021/06/08 00:23:06;;;;;;;13.98;4.07;;;;;;;15.36;63.13;102345.91;5051794;28;20056;-55
2021/06/08 00:25:33;;;;;;;6.65;3.40;;;;;;;15.37;62.86;102345.81;5049841;28;20049;-53
2021/06/08 00:28:03;;;;;;;6.07;3.38;;;;;;;15.31;63.48;102338.25;5048932;28;20103;-55
2021/06/08 00:30:30;;;;;;;6.80;3.20;;;;;;;15.30;63.31;102339.19;5051311;28;20057;-58
2021/06/08 00:32:57;;;;;;;6.90;3.80;;;;;;;15.19;64.03;102341.66;5051718;28;20060;-58
2021/06/08 00:35:27;;;;;;;8.25;3.50;;;;;;;15.19;64.28;102339.84;5052030;28;20400;-58
2021/06/08 00:37:54;;;;;;;7.55;3.75;;;;;;;15.15;64.15;102334.84;5050473;28;20055;-54
2021/06/08 00:40:21;;;;;;;8.00;4.45;;;;;;;15.10;64.27;102335.09;5049300;28;20052;-58
2021/06/08 00:42:48;;;;;;;8.00;3.70;;;;;;;15.01;64.80;102339.19;5047665;28;20698;-56
2021/06/08 00:45:15;;;;;;;10.77;4.18;;;;;;;14.99;64.92;102340.22;5051903;28;20055;-58
2021/06/08 00:47:42;;;;;;;7.70;3.92;;;;;;;14.96;65.50;102341.25;5034804;28;20057;-56
2021/06/08 00:50:09;;;;;;;6.18;3.90;;;;;;;14.87;65.47;102349.72;5054014;28;20049;-55
2021/06/08 00:52:36;;;;;;;8.75;4.07;;;;;;;14.78;66.18;102350.28;5054947;28;20053;-58
2021/06/08 00:55:04;;;;;;;8.48;4.20;;;;;;;14.79;66.04;102347.56;5055161;28;20144;-55
2021/06/08 00:57:30;;;;;;;8.20;4.07;;;;;;;14.82;65.84;102344.72;5054671;28;20048;-58
2021/06/08 00:59:57;;;;;;;8.18;4.22;;;;;;;14.80;66.30;102345.75;5037022;28;20059;-57
2021/06/08 01:02:24;;;;;;;7.07;4.78;;;;;;;14.78;66.51;102343.19;5053307;28;20041;-58
2021/06/08 01:04:51;;;;;;;7.20;4.70;;;;;;;14.84;66.16;102342.81;5054547;28;20081;-57
2021/06/08 01:07:18;;;;;;;8.52;5.07;;;;;;;14.82;66.29;102342.06;5053684;28;20403;-56
2021/06/08 01:09:45;;;;;;;8.35;4.93;;;;;;;14.79;66.78;102339.63;5053582;28;20090;-55
2021/06/08 01:12:12;;;;;;;7.57;4.45;;;;;;;14.65;67.03;102332.47;5053299;28;20040;-53
2021/06/08 01:14:39;;;;;;;9.32;5.38;;;;;;;14.53;67.63;102333.16;5054423;28;20037;-57
2021/06/08 01:17:05;;;;;;;10.40;5.90;;;;;;;14.52;67.50;102331.47;5053477;28;20484;-54
2021/06/08 01:19:32;;;;;;;10.13;5.50;;;;;;;14.43;67.78;102338.13;5053200;28;20076;-54
2021/06/08 01:22:00;;;;;;;9.13;5.15;;;;;;;14.45;68.26;102335.41;5051580;28;20041;-54
2021/06/08 01:24:26;;;;;;;10.95;6.43;;;;;;;14.35;68.86;102343.03;5051624;28;20049;-55
2021/06/08 01:26:53;;;;;;;8.82;5.60;;;;;;;14.40;68.91;102340.09;5053612;28;20554;-57
2021/06/08 01:29:20;;;;;;;9.80;6.32;;;;;;;14.39;69.13;102338.41;5052975;28;20495;-55
2021/06/08 01:31:48;;;;;;;10.45;6.10;;;;;;;14.35;69.34;102333.28;5035305;28;20036;-55
2021/06/08 01:34:15;;;;;;;12.07;6.45;;;;;;;14.29;69.39;102346.88;5053256;28;20444;-58
2021/06/08 01:36:42;;;;;;;9.25;6.18;;;;;;;14.32;69.70;102344.03;5052367;28;20055;-58
2021/06/08 01:39:09;;;;;;;10.00;6.10;;;;;;;14.24;69.76;102348.94;5053178;28;20492;-59
2021/06/08 01:41:37;;;;;;;11.18;6.50;;;;;;;14.11;70.31;102343.50;5052952;28;20063;-58
2021/06/08 01:44:05;;;;;;;10.13;6.28;;;;;;;14.10;70.41;102343.56;5052815;28;20151;-59
2021/06/08 01:46:32;;;;;;;10.90;6.68;;;;;;;14.08;70.56;102340.16;5052790;28;20522;-58
2021/06/08 01:48:59;;;;;;;13.57;6.78;;;;;;;14.17;70.33;102342.28;5035424;28;20064;-58
2021/06/08 01:51:43;;;;;;;12.05;6.53;;;;;;;14.11;70.34;102347.91;5051095;28;20511;-52
2021/06/08 01:54:24;;;;;;;10.65;6.78;;;;;;;14.01;70.81;102343.13;5053922;28;20132;-56
2021/06/08 01:57:09;;;;;;;12.30;7.25;;;;;;;14.05;70.87;102348.28;5035337;28;20056;-54
2021/06/08 01:59:45;;;;;;;13.02;7.13;;;;;;;14.07;70.67;102355.19;5053896;28;20381;-54
2021/06/08 02:02:36;;;;;;;13.43;7.75;;;;;;;13.89;71.47;102348.25;5052750;28;20076;-55
2021/06/08 02:05:11;;;;;;;10.35;7.85;;;;;;;13.91;71.65;102341.13;5052397;28;20041;-54
2021/06/08 02:07:56;;;;;;;12.52;7.65;;;;;;;13.93;71.53;102342.72;5052651;28;20059;-54
2021/06/08 02:10:36;;;;;;;12.85;7.30;;;;;;;13.89;71.81;102342.97;5036026;28;20037;-53
2021/06/08 02:13:36;;;;;;;12.27;8.20;;;;;;;13.89;71.59;102341.16;5035879;28;20072;-53
2021/06/08 02:16:23;;;;;;;12.85;7.75;;;;;;;13.83;72.00;102342.38;5049881;28;20059;-54
2021/06/08 02:18:53;;;;;;;12.95;7.57;;;;;;;13.77;72.27;102337.44;5052559;28;20052;-54
2021/06/08 02:21:26;;;;;;;17.50;8.57;;;;;;;13.74;72.52;102336.75;5052274;28;20045;-54
2021/06/08 02:23:54;;;;;;;14.32;8.25;;;;;;;13.64;72.83;102339.88;5053313;28;20508;-54
2021/06/08 02:26:24;;;;;;;11.82;8.30;;;;;;;13.66;72.93;102339.78;5052348;28;20049;-54
2021/06/08 02:28:52;;;;;;;13.90;8.57;;;;;;;13.72;72.37;102347.41;5052117;28;20055;-55
2021/06/08 02:31:20;;;;;;;13.65;9.23;;;;;;;13.67;72.78;102344.16;5050479;28;20491;-53
2021/06/08 02:33:47;;;;;;;13.80;8.43;;;;;;;13.61;73.04;102347.16;5050363;28;20159;-54
2021/06/08 02:36:14;;;;;;;13.77;8.73;;;;;;;13.64;72.86;102354.91;5052088;28;20144;-54
2021/06/08 02:38:42;;;;;;;13.93;7.85;;;;;;;13.74;72.46;102357.88;5035546;28;20055;-54
2021/06/08 02:41:10;;;;;;;13.70;9.00;;;;;;;13.73;72.75;102364.09;5051903;28;20526;-54
2021/06/08 02:43:37;;;;;;;14.10;8.40;;;;;;;13.65;73.00;102356.63;5051713;28;20064;-53
2021/06/08 02:46:06;;;;;;;13.52;9.02;;;;;;;13.68;72.62;102354.63;5052878;28;20130;-55
2021/06/08 02:48:34;;;;;;;14.10;9.30;;;;;;;13.64;72.80;102354.91;5052849;28;20403;-58
2021/06/08 02:51:05;;;;;;;14.27;9.70;;;;;;;13.53;73.89;102360.75;5051529;28;20400;-58
2021/06/08 02:53:33;;;;;;;14.25;9.15;;;;;;;13.59;73.24;102356.94;5051938;28;20045;-54
2021/06/08 02:56:00;;;;;;;12.73;9.40;;;;;;;13.53;73.63;102352.84;5052860;28;20049;-54
2021/06/08 02:58:28;;;;;;;12.85;8.32;;;;;;;13.60;73.12;102356.00;5051675;28;20049;-54
2021/06/08 03:00:54;;;;;;;14.55;9.60;;;;;;;13.58;73.40;102352.56;5051268;28;20052;-58
2021/06/08 03:03:26;;;;;;;14.77;9.32;;;;;;;13.62;73.27;102356.75;5051500;28;20073;-54
2021/06/08 03:06:14;;;;;;;13.73;9.27;;;;;;;13.53;73.68;102366.88;5051287;28;20053;-52
2021/06/08 03:08:59;;;;;;;12.50;8.75;;;;;;;13.62;73.21;102365.56;5051086;28;20686;-57
2021/06/08 03:11:32;;;;;;;13.07;8.57;;;;;;;13.61;73.51;102361.19;5051274;28;20523;-57
2021/06/08 03:14:00;;;;;;;16.13;10.02;;;;;;;13.62;73.46;102354.97;5051302;28;20059;-57
2021/06/08 03:16:30;;;;;;;12.75;9.38;;;;;;;13.63;73.13;102362.00;5051202;28;20713;-57
2021/06/08 03:19:06;;;;;;;13.90;9.52;;;;;;;13.53;74.00;102358.97;5051396;28;20084;-54
2021/06/08 03:21:39;;;;;;;14.70;10.57;;;;;;;13.38;74.72;102364.22;5035678;28;20041;-58
2021/06/08 03:24:08;;;;;;;16.33;10.32;;;;;;;13.46;74.25;102362.03;5051508;28;20048;-53
2021/06/08 03:26:35;;;;;;;16.58;10.65;;;;;;;13.50;73.88;102367.06;5034501;28;20488;-59
2021/06/08 03:29:07;;;;;;;15.57;11.10;;;;;;;13.47;74.06;102361.94;5051015;28;20111;-54
2021/06/08 03:31:40;;;;;;;14.95;10.20;;;;;;;13.47;73.97;102361.06;5034355;28;20056;-58
2021/06/08 03:34:10;;;;;;;15.32;9.93;;;;;;;13.46;74.40;102354.94;5050902;28;20045;-53
2021/06/08 03:36:37;;;;;;;14.40;10.35;;;;;;;13.46;74.30;102362.88;5052237;28;20049;-55
2021/06/08 03:39:04;;;;;;;16.20;10.45;;;;;;;13.41;75.01;102359.63;5050950;28;20068;-58
2021/06/08 03:41:31;;;;;;;17.80;10.45;;;;;;;13.50;74.21;102361.78;5050805;28;20048;-58
2021/06/08 03:43:58;;;;;;;17.20;10.70;;;;;;;13.50;74.18;102360.94;5050785;28;20056;-53
2021/06/08 03:46:25;;;;;;;14.02;10.48;;;;;;;13.46;74.70;102362.88;5050635;28;20045;-54
2021/06/08 03:48:54;;;;;;;16.05;11.38;;;;;;;13.44;74.93;102361.25;5052010;28;20044;-58
2021/06/08 03:51:22;;;;;;;14.45;10.98;;;;;;;13.52;74.36;102362.56;5034373;28;20516;-58
2021/06/08 03:53:49;;;;;;;15.32;10.02;;;;;;;13.48;74.39;102365.44;5034641;28;20507;-58
2021/06/08 03:56:16;;;;;;;14.18;10.30;;;;;;;13.46;74.30;102356.75;5050756;28;20048;-58
2021/06/08 03:58:43;;;;;;;16.08;10.77;;;;;;;13.41;74.49;102362.25;5050721;28;20106;-58
2021/06/08 04:01:10;;;;;;;15.20;10.60;;;;;;;13.45;74.41;102360.31;5034254;28;20556;-58
2021/06/08 04:03:37;;;;;;;15.00;10.50;;;;;;;13.43;74.89;102364.81;5051008;28;20140;-59
2021/06/08 04:06:08;;;;;;;16.10;9.85;;;;;;;13.47;74.64;102367.22;5034884;28;20045;-54
2021/06/08 04:08:35;;;;;;;14.75;10.90;;;;;;;13.48;75.07;102373.34;5051622;28;20061;-53
2021/06/08 04:11:02;;;;;;;16.17;10.82;;;;;;;13.46;74.96;102372.59;5050802;28;20075;-51
2021/06/08 04:13:29;;;;;;;15.32;10.57;;;;;;;13.47;74.88;102369.00;5051905;28;20052;-53
2021/06/08 04:15:56;;;;;;;16.55;11.45;;;;;;;13.44;75.40;102369.19;5050644;28;20052;-58
2021/06/08 04:18:29;;;;;;;16.95;11.27;;;;;;;13.43;75.35;102357.75;5050736;28;20059;-57
2021/06/08 04:20:56;;;;;;;16.08;11.00;;;;;;;13.47;75.33;102358.44;5035891;28;20484;-58
2021/06/08 04:23:24;;;;;;;16.10;11.07;;;;;;;13.49;75.32;102357.41;5055751;28;20052;-52
2021/06/08 04:25:51;;;;;;;17.13;11.43;;;;;;;13.47;75.76;102364.59;5038186;28;20045;-57
2021/06/08 04:28:20;;;;;;;17.02;11.98;;;;;;;13.51;75.57;102354.69;5038128;28;20396;-57
2021/06/08 04:30:47;;;;;;;19.05;11.48;;;;;;;13.55;75.49;102364.16;5055476;28;20045;-53
2021/06/08 04:33:20;;;;;;;19.08;12.43;;;;;;;13.57;75.76;102357.00;5055603;28;20044;-53
2021/06/08 04:35:47;;;;;;;17.08;12.20;;;;;;;13.57;75.90;102364.94;5054283;28;20063;-53
2021/06/08 04:38:15;;;;;;;17.77;12.63;;;;;;;13.57;75.78;102361.47;5021652;28;20060;-57
2021/06/08 04:40:43;;;;;;;19.20;13.40;;;;;;;13.59;75.81;102355.13;5055487;28;20135;-52
2021/06/08 04:43:10;;;;;;;16.42;11.95;;;;;;;13.65;75.49;102361.91;5055189;28;20503;-50
2021/06/08 04:45:38;;;;;;;25.80;13.90;;;;;;;13.64;75.47;102361.03;5055247;28;20527;-54
2021/06/08 04:48:05;;;;;;;17.20;12.60;;;;;;;13.66;75.29;102359.16;5054213;28;20093;-57
2021/06/08 04:50:32;;;;;;;17.98;12.25;;;;;;;13.73;74.73;102361.47;5055141;28;20514;-53
2021/06/08 04:53:03;;;;;;;19.20;12.25;;;;;;;13.74;74.38;102356.09;5037101;28;20053;-57
2021/06/08 04:55:31;;;;;;;17.38;11.98;;;;;;;13.77;74.67;102365.66;5037530;28;20088;-52
2021/06/08 04:57:58;;;;;;;17.15;12.65;;;;;;;13.77;75.58;102363.88;5055221;28;20557;-57
2021/06/08 05:01:00;;;;;;;16.83;11.38;;;;;;;13.86;75.27;102365.16;5054981;28;20048;-57
2021/06/08 05:03:30;;;;;;;19.25;12.40;;;;;;;13.91;75.06;102363.09;5049889;28;20493;-58
2021/06/08 05:05:59;;;;;;;18.75;11.93;;;;;;;13.99;75.33;102354.75;5053742;28;20496;-54
2021/06/08 05:08:39;;;;;;;15.10;10.48;;;;;;;14.06;74.78;102357.88;5053857;28;20045;-54
2021/06/08 05:11:13;;;;;;;16.90;11.70;;;;;;;14.15;74.33;102366.19;5053485;28;20079;-58
2021/06/08 05:13:46;;;;;;;18.83;12.07;;;;;;;14.20;74.20;102361.47;5054376;28;20733;-58
2021/06/08 05:16:14;;;;;;;18.00;10.85;;;;;;;14.32;73.73;102361.72;5053039;28;20057;-54
2021/06/08 05:18:42;;;;;;;18.48;12.70;;;;;;;14.36;74.29;102364.09;5053678;28;20061;-59
2021/06/08 05:21:11;;;;;;;17.48;12.38;;;;;;;14.43;73.42;102361.97;5036893;28;20051;-58
2021/06/08 05:23:38;;;;;;;21.45;12.98;;;;;;;14.54;73.10;102359.53;5054632;28;20462;-58
2021/06/08 05:26:05;;;;;;;17.58;12.40;;;;;;;14.65;73.16;102356.28;5036761;28;20053;-58
2021/06/08 05:28:38;;;;;;;15.75;11.68;;;;;;;14.70;72.68;102359.53;5036357;28;20049;-54
2021/06/08 05:31:05;;;;;;;16.25;10.30;;;;;;;14.79;71.77;102355.50;5036231;28;20511;-58
2021/06/08 05:33:33;;;;;;;16.70;11.18;;;;;;;14.88;71.95;102362.88;5053850;28;20148;-58
2021/06/08 05:36:00;;;;;;;16.83;11.15;;;;;;;14.95;72.17;102360.72;5053989;28;20451;-56
2021/06/08 05:38:38;;;;;;;15.55;11.18;;;;;;;15.07;72.02;102351.19;5054366;28;20063;-58
2021/06/08 05:41:09;;;;;;;16.77;11.50;;;;;;;15.17;71.17;102362.09;5054111;28;20443;-56
2021/06/08 05:43:37;;;;;;;14.27;11.00;;;;;;;15.25;70.70;102361.63;5053900;28;20045;-58
2021/06/08 05:46:05;;;;;;;17.50;11.25;;;;;;;15.33;69.83;102362.84;5054083;28;20522;-56
2021/06/08 05:48:33;;;;;;;16.60;10.27;;;;;;;15.45;68.70;102368.38;5054149;28;20079;-56
2021/06/08 05:51:01;;;;;;;14.73;9.90;;;;;;;15.52;68.21;102369.69;5054035;28;20061;-57
2021/06/08 05:53:28;;;;;;;15.50;9.90;;;;;;;15.64;67.82;102376.88;5054381;28;20455;-58
2021/06/08 05:55:57;;;;;;;14.45;9.93;;;;;;;15.71;67.49;102378.19;5054016;28;20067;-56
2021/06/08 05:58:28;;;;;;;13.82;9.55;;;;;;;15.83;66.59;102370.44;5052649;28;20095;-56
2021/06/08 06:00:58;;;;;;;16.60;9.85;;;;;;;15.88;67.07;102379.81;5053927;28;20056;-56
2021/06/08 06:03:25;;;;;;;15.95;9.65;;;;;;;16.05;66.00;102381.38;5052698;28;20570;-57
2021/06/08 06:05:53;;;;;;;14.85;10.23;;;;;;;16.10;66.17;102381.09;5052597;28;20048;-55
2021/06/08 06:08:20;;;;;;;13.55;9.27;;;;;;;16.21;65.44;102383.03;5052200;28;20526;-55
2021/06/08 06:10:47;;;;;;;14.35;9.55;;;;;;;16.30;64.22;102371.81;5052464;28;20071;-57
2021/06/08 06:13:19;;;;;;;12.23;8.23;;;;;;;16.41;64.12;102381.75;5052176;28;20496;-58
2021/06/08 06:15:46;;;;;;;13.85;9.45;;;;;;;16.50;64.22;102372.34;5053672;28;20040;-57
2021/06/08 06:18:14;;;;;;;13.63;9.07;;;;;;;16.65;63.63;102389.06;5052192;28;20530;-57
2021/06/08 06:20:41;;;;;;;12.05;7.95;;;;;;;16.79;63.47;102388.13;5052143;28;20526;-56
2021/06/08 06:23:09;;;;;;;11.93;7.80;;;;;;;16.89;61.95;102381.25;5052925;28;20095;-57
2021/06/08 06:25:37;;;;;;;11.70;8.00;;;;;;;17.08;60.79;102388.81;5053012;28;20060;-57
2021/06/08 06:28:04;;;;;;;11.80;8.50;;;;;;;17.21;60.41;102394.16;5053236;28;20051;-57
2021/06/08 06:30:32;;;;;;;10.48;6.30;;;;;;;17.29;59.52;102381.19;5052963;28;20280;-55
2021/06/08 06:32:59;;;;;;;11.10;7.03;;;;;;;17.42;58.74;102378.50;5052120;28;20103;-57
2021/06/08 06:35:26;;;;;;;10.13;6.30;;;;;;;17.54;57.83;102385.63;5051745;28;20049;-56
2021/06/08 06:37:53;;;;;;;10.55;6.53;;;;;;;17.71;57.13;102380.91;5051867;28;20043;-57
2021/06/08 06:40:25;;;;;;;8.43;4.90;;;;;;;17.82;54.64;102383.69;5035534;28;20094;-56
2021/06/08 06:42:59;;;;;;;11.15;5.45;;;;;;;17.98;54.92;102380.78;5050966;28;20546;-57
2021/06/08 06:45:26;;;;;;;9.20;4.25;;;;;;;18.17;53.56;102388.25;5052657;28;20041;-58
2021/06/08 06:48:01;;;;;;;6.70;3.67;;;;;;;18.28;51.86;102382.16;5051403;28;20049;-56
2021/06/08 06:50:36;;;;;;;5.93;3.05;;;;;;;18.41;50.67;102390.09;5052731;28;20049;-58
2021/06/08 06:53:04;;;;;;;6.25;3.03;;;;;;;18.53;50.36;102388.34;5052466;28;20055;-57
2021/06/08 06:55:32;;;;;;;8.00;3.10;;;;;;;18.64;50.88;102384.84;5052893;28;20538;-57
2021/06/08 06:57:59;;;;;;;7.45;3.17;;;;;;;18.75;50.97;102393.75;5018711;28;20053;-58
2021/06/08 07:00:27;;;;;;;7.38;3.30;;;;;;;18.91;51.26;102389.97;5051588;28;20094;-58
2021/06/08 07:02:57;;;;;;;5.20;2.60;;;;;;;19.11;48.00;102387.56;5052560;28;20503;-56
2021/06/08 07:05:31;;;;;;;7.03;3.00;;;;;;;19.34;47.34;102385.78;5051648;28;20499;-57
2021/06/08 07:08:01;;;;;;;5.70;2.67;;;;;;;19.45;47.31;102379.59;5052630;28;20051;-57
2021/06/08 07:10:29;;;;;;;5.78;2.70;;;;;;;19.47;46.85;102382.97;5052518;28;20103;-57
2021/06/08 07:12:56;;;;;;;8.57;2.75;;;;;;;19.65;49.24;102381.53;5051135;28;20121;-57
2021/06/08 07:15:26;;;;;;;7.40;3.03;;;;;;;19.84;49.34;102390.78;5051437;28;20381;-57
2021/06/08 07:17:53;;;;;;;5.75;3.17;;;;;;;19.88;48.77;102382.38;5052082;28;20045;-56
2021/06/08 07:20:21;;;;;;;7.40;3.38;;;;;;;20.08;49.23;102383.44;5051260;28;20049;-58
2021/06/08 07:22:48;;;;;;;6.35;3.13;;;;;;;20.23;48.99;102380.47;5033185;28;20053;-58
2021/06/08 07:25:18;;;;;;;6.00;3.28;;;;;;;20.35;48.79;102384.78;5048969;28;20529;-58
2021/06/08 07:27:45;;;;;;;7.28;3.38;;;;;;;20.54;48.46;102380.59;5051558;28;20534;-58
2021/06/08 07:30:16;;;;;;;5.90;3.30;;;;;;;20.72;48.00;102389.78;5051219;28;20052;-58
2021/06/08 07:33:04;;;;;;;7.40;3.80;;;;;;;20.95;47.97;102386.97;5050988;28;20037;-59
2021/06/08 07:35:40;;;;;;;5.75;3.30;;;;;;;21.09;48.23;102381.31;5052007;28;20507;-58
2021/06/08 07:38:13;;;;;;;6.80;3.60;;;;;;;21.24;46.16;102376.44;5050988;28;20084;-57
2021/06/08 07:40:44;;;;;;;6.22;3.58;;;;;;;21.23;47.24;102374.75;5051177;28;20071;-58
2021/06/08 07:43:12;;;;;;;6.07;3.58;;;;;;;21.44;47.51;102374.69;5051251;28;20374;-58
2021/06/08 07:45:50;;;;;;;7.90;3.75;;;;;;;21.62;46.71;102374.09;5051232;28;20102;-59
2021/06/08 07:48:28;;;;;;;6.38;3.50;;;;;;;21.80;46.30;102378.78;5051906;28;20053;-57
2021/06/08 07:50:56;;;;;;;5.43;2.97;;;;;;;22.03;45.91;102377.59;5050969;28;20052;-56
2021/06/08 07:53:28;;;;;;;6.32;3.45;;;;;;;22.22;45.95;102376.78;5034386;28;20049;-57
2021/06/08 07:55:55;;;;;;;6.53;3.08;;;;;;;22.35;45.01;102375.69;5036465;28;20049;-58
2021/06/08 07:58:23;;;;;;;6.75;3.20;;;;;;;22.36;43.85;102372.84;5038511;28;20449;-57
2021/06/08 08:00:51;;;;;;;4.72;2.70;;;;;;;22.60;43.63;102371.56;5054836;28;20526;-56
2021/06/08 08:03:28;;;;;;;5.32;2.90;;;;;;;22.64;43.68;102372.97;5056015;28;20095;-57
2021/06/08 08:06:02;;;;;;;5.82;2.38;;;;;;;22.81;43.78;102378.59;5055002;28;20045;-58
2021/06/08 08:08:30;;;;;;;4.80;2.50;;;;;;;23.01;43.69;102377.56;5055905;28;20463;-57
2021/06/08 08:10:58;;;;;;;5.50;2.60;;;;;;;23.11;42.92;102374.88;5054804;28;20049;-57
2021/06/08 08:13:28;;;;;;;5.20;2.70;;;;;;;23.27;42.25;102377.81;5055801;28;20045;-57
2021/06/08 08:16:05;;;;;;;5.10;2.60;;;;;;;23.56;41.97;102365.22;5056042;28;20048;-57
2021/06/08 08:18:36;;;;;;;4.85;2.55;;;;;;;23.74;41.56;102371.50;5055732;28;20098;-57
2021/06/08 08:21:07;;;;;;;4.68;2.42;;;;;;;23.80;41.94;102364.69;5055851;28;20049;-57
2021/06/08 08:23:34;;;;;;;4.43;2.63;;;;;;;24.08;40.28;102364.69;5055635;28;20507;-59
2021/06/08 08:26:04;;;;;;;7.13;3.03;;;;;;;23.99;39.76;102357.53;5055608;28;20053;-58
2021/06/08 08:28:33;;;;;;;6.35;2.85;;;;;;;23.99;40.34;102358.38;5055808;28;20072;-57
2021/06/08 08:31:02;;;;;;;6.82;3.17;;;;;;;24.28;40.74;102354.59;5054379;28;20132;-58
2021/06/08 08:33:29;;;;;;;5.85;3.53;;;;;;;24.43;39.73;102347.69;5055445;28;20041;-58
2021/06/08 08:35:57;;;;;;;6.72;3.33;;;;;;;24.47;39.58;102348.22;5054181;28;20040;-57
2021/06/08 08:38:24;;;;;;;6.13;3.47;;;;;;;24.44;39.52;102352.06;5037293;28;20053;-58
2021/06/08 08:40:51;;;;;;;5.32;3.55;;;;;;;24.57;40.55;102342.75;5055175;28;20426;-59
2021/06/08 08:43:38;;;;;;;6.68;3.40;;;;;;;24.78;38.83;102337.06;5054786;28;20049;-58
2021/06/08 08:46:05;;;;;;;6.30;3.60;;;;;;;24.71;39.77;102342.22;5053869;28;20041;-57
2021/06/08 08:48:32;;;;;;;7.90;4.60;;;;;;;24.52;40.29;102345.06;5053655;28;20052;-57
2021/06/08 08:50:59;;;;;;;7.50;4.45;;;;;;;24.62;39.32;102341.31;5053659;28;20060;-58
2021/06/08 08:53:26;;;;;;;7.55;4.57;;;;;;;24.95;40.12;102335.28;5053620;28;20045;-58
2021/06/08 08:55:53;;;;;;;8.25;4.75;;;;;;;25.12;39.69;102328.16;5053646;28;20102;-58
2021/06/08 08:58:24;;;;;;;8.82;5.25;;;;;;;25.04;39.46;102328.97;5053774;28;20049;-58
2021/06/08 09:00:55;;;;;;;9.80;4.78;;;;;;;25.36;39.30;102319.41;5054974;28;20052;-58
2021/06/08 09:03:22;;;;;;;7.68;4.40;;;;;;;25.58;39.38;102323.31;5054581;28;20132;-58
2021/06/08 09:05:49;;;;;;;6.50;4.57;;;;;;;25.62;38.37;102330.06;5054204;28;20060;-59
2021/06/08 09:08:17;;;;;;;7.60;4.90;;;;;;;25.81;38.17;102326.25;5054889;28;20438;-58
2021/06/08 09:10:44;;;;;;;7.90;4.40;;;;;;;25.78;39.40;102331.09;5053769;28;20140;-57
2021/06/08 09:13:11;;;;;;;7.00;4.40;;;;;;;26.01;37.94;102317.84;5053779;28;20048;-58
2021/06/08 09:15:38;;;;;;;6.68;4.30;;;;;;;25.90;37.34;102321.69;5054768;28;20041;-59
2021/06/08 09:18:05;;;;;;;7.38;4.45;;;;;;;26.14;38.79;102320.09;5054453;28;20463;-59
2021/06/08 09:20:32;;;;;;;7.85;4.80;;;;;;;26.21;38.70;102321.09;5054638;28;20071;-59
2021/06/08 09:23:01;;;;;;;7.45;4.38;;;;;;;26.30;37.27;102319.22;5054639;28;20045;-59
2021/06/08 09:25:34;;;;;;;8.25;4.35;;;;;;;26.37;36.95;102322.97;5053365;28;20045;-59
2021/06/08 09:28:20;;;;;;;6.43;3.80;;;;;;;26.02;37.67;102324.97;5054463;28;20044;-58
2021/06/08 09:31:02;;;;;;;6.57;3.55;;;;;;;26.45;37.16;102322.94;5054483;28;20062;-60
2021/06/08 09:33:40;;;;;;;6.40;3.80;;;;;;;26.74;36.91;102315.34;5054608;28;20055;-57
2021/06/08 09:36:10;;;;;;;7.47;4.50;;;;;;;26.64;37.74;102323.59;5053269;28;20552;-58
2021/06/08 09:38:43;;;;;;;6.55;4.03;;;;;;;26.61;35.94;102318.53;5053023;28;20045;-58
2021/06/08 09:41:12;;;;;;;;;;;;;;;27.10;35.43;102320.31;5054731;28;20048;-58
2021/06/08 09:44:01;;;;;;;6.35;3.90;;;;;;;27.21;35.95;102319.09;5052783;28;20604;-59
2021/06/08 09:46:44;;;;;;;7.75;5.18;;;;;;;26.79;35.45;102313.81;5053762;28;20060;-58
2021/06/08 09:49:30;;;;;;;6.30;4.20;;;;;;;26.98;36.61;102317.13;5053808;28;20152;-59
2021/06/08 09:52:07;;;;;;;7.22;4.55;;;;;;;26.94;36.52;102319.34;5053464;28;20131;-59
2021/06/08 09:54:35;;;;;;;8.75;4.68;;;;;;;27.12;36.37;102311.00;5052667;28;20045;-57
2021/06/08 09:57:23;;;;;;;10.23;5.18;;;;;;;27.41;35.35;102319.53;5052526;28;20088;-58
2021/06/08 09:59:58;;;;;;;7.43;4.38;;;;;;;27.43;37.19;102314.78;5052398;28;20102;-58
2021/06/08 10:02:38;;;;;;;7.65;4.60;;;;;;;27.70;34.99;102318.03;5053790;28;20467;-59
2021/06/08 10:05:29;;;;;;;9.20;5.18;;;;;;;27.33;34.42;102314.97;5053840;28;20051;-59
2021/06/08 10:07:59;;;;;;;8.23;4.07;;;;;;;27.74;37.21;102322.03;5047467;28;20063;-59
2021/06/08 10:10:35;;;;;;;6.30;3.60;;;;;;;28.06;35.24;102318.31;5052527;28;20488;-58
2021/06/08 10:13:14;;;;;;;7.97;4.50;;;;;;;28.25;35.13;102313.41;5035933;28;20071;-59
2021/06/08 10:15:51;;;;;;;4.63;2.72;;;;;;;28.56;32.93;102312.44;5052450;28;20068;-59
2021/06/08 10:18:18;;;;;;;6.15;3.88;;;;;;;28.70;33.78;102311.66;5052711;28;20056;-59
2021/06/08 10:20:53;;;;;;;7.80;4.53;;;;;;;28.78;33.47;102300.75;5052255;28;20049;-58
2021/06/08 10:23:33;;;;;;;7.93;4.93;;;;;;;28.57;34.16;102300.59;5053452;28;20053;-58
2021/06/08 10:26:02;;;;;;;6.95;4.57;;;;;;;28.63;34.27;102299.84;5052150;28;20155;-58
2021/06/08 10:28:30;;;;;;;7.07;4.43;;;;;;;28.68;34.49;102302.88;5054297;28;20442;-58
2021/06/08 10:30:58;;;;;;;9.18;4.28;;;;;;;28.74;32.74;102304.84;5052032;28;20045;-58
2021/06/08 10:33:38;;;;;;;8.25;4.30;;;;;;;28.66;32.99;102302.25;5053300;28;20098;-58
2021/06/08 10:36:13;;;;;;;7.68;5.00;;;;;;;28.08;34.22;102301.91;5053189;28;20071;-58
2021/06/08 10:38:40;;;;;;;8.55;5.88;;;;;;;28.57;33.37;102300.59;5052055;28;20072;-59
2021/06/08 10:41:06;;;;;;;8.68;5.35;;;;;;;28.74;32.55;102296.75;5051932;28;20049;-59
2021/06/08 10:43:36;;;;;;;6.32;3.60;;;;;;;28.74;33.62;102302.16;5053020;28;20041;-59
2021/06/08 10:46:03;;;;;;;7.65;3.92;;;;;;;28.73;31.29;102288.78;5052967;28;20068;-59
2021/06/08 10:48:38;;;;;;;7.75;4.82;;;;;;;29.10;31.39;102289.72;5053040;28;20392;-58
2021/06/08 10:51:12;;;;;;;7.20;4.85;;;;;;;29.30;29.87;102290.84;5035623;28;20424;-58
2021/06/08 10:53:45;;;;;;;7.18;4.38;;;;;;;29.13;31.30;102303.69;5052792;28;20388;-58
2021/06/08 10:56:23;;;;;;;7.43;4.60;;;;;;;29.18;31.30;102293.16;5051671;28;20056;-59
2021/06/08 10:58:55;;;;;;;7.63;4.85;;;;;;;29.04;31.01;102291.31;5052748;28;20060;-58
2021/06/08 11:01:31;;;;;;;8.50;5.43;;;;;;;29.36;30.98;102288.41;5053097;28;20049;-60
2021/06/08 11:03:59;;;;;;;6.93;3.63;;;;;;;29.15;31.55;102296.25;5052467;28;20049;-58
2021/06/08 11:06:59;;;;;;;8.02;4.65;;;;;;;29.51;31.63;102294.59;5051505;28;20095;-58
2021/06/08 11:09:32;;;;;;;11.23;4.93;;;;;;;29.31;32.19;102286.25;5035039;28;20075;-58
2021/06/08 11:12:08;;;;;;;7.53;5.25;;;;;;;29.68;32.45;102285.19;5051244;28;20044;-58
2021/06/08 11:14:38;;;;;;;8.55;5.30;;;;;;;29.72;31.16;102279.38;5052349;28;20508;-58
2021/06/08 11:17:15;;;;;;;7.65;4.68;;;;;;;29.34;30.45;102283.16;5051574;28;20044;-58
2021/06/08 11:19:45;;;;;;;5.75;3.58;;;;;;;29.27;31.21;102283.09;5051415;28;20060;-58
2021/06/08 11:22:14;;;;;;;6.10;3.88;;;;;;;29.28;31.22;102281.22;5048837;28;20049;-58
2021/06/08 11:24:43;;;;;;;6.53;3.97;;;;;;;29.55;32.35;102289.66;5049304;28;20095;-59
2021/06/08 11:27:10;;;;;;;8.75;5.43;;;;;;;29.76;31.71;102283.38;5051844;28;20529;-59
2021/06/08 11:29:56;;;;;;;8.20;4.05;;;;;;;29.98;29.82;102286.94;5050899;28;20048;-58
2021/06/08 11:32:28;;;;;;;5.88;3.85;;;;;;;30.03;30.01;102283.69;5052051;28;20059;-59
2021/06/08 11:35:09;;;;;;;7.30;3.60;;;;;;;30.20;29.14;102284.22;5051821;28;20389;-59